Angler Guide Weather for Earlton -
Earlton, Ontario Current Weather Conditions
Enter your "Place, State", US Zip Code or ICAO:  
Forecast Information Radar Information
Earlton, Ontario, Canada  Lat: 47.70N, Lon: 79.83W
ICAO Used: CYUY
Current Conditions
Updated:
Sun & Moon Information:
Temp: N/A
Humidity: N/A
Wind Speed: N/A
Barometer: N/A
Dewpoint: N/A
Heat Index: N/A
Wind Chill: N/A
Civil Twilight: 7:22 AM EST
Moonrise: 3:04 AM EST Moon Phase:
Waning Crescent Moon
Waning Crescent Moon
Moonset: 2:22 PM EST
Sunrise: 7:58 AM EST
Sunset: 4:26 PM EST
Civil Twilight: 5:02 PM EST
Forecast for Earlton, ON:
(Forecast based on TAF for )
0316 PM EST MON NOV 06 2006
  
AFTERNOONEVENINGOVERNIGHT
PARTLY CLOUDYMISTMIST
Partly
Cloudy
MistMist
TAF based forecast:
Dated: 0316 PM EST MON NOV 06 2006
Afternoon...Mostly cloudy with winds from the south at 9 mph. Then turning mostly cloudy with winds from the south at 12 mph. Possible periods of partly cloudy.
Evening...Turning mostly cloudy with winds from the south at 12 mph. Then turning overcast with mist with winds from the south south east at 12 mph. Possible periods of partly cloudy.
Overnight...Turning overcast with mist with winds from the south south east at 12 mph.
Original Encoded TAF:
Dated: 0316 PM EST MON NOV 06 2006
2006/11/06 20:16
CYUY 062016Z 062008 18008KT P6SM FEW008 BKN080 FM2200Z 19010KT P6SM BKN025 TEMPO 2202 SCT025 FM0200Z 20010KT 5SM BR OVC015=




Powered by Angler Guide.com
Copyright 2007, all rights reserved.